»·PEaware :: N421M L88-KSBP

N421M :: L88-KSBP

FLIGHT INFORMATION

Flight Status: Arrived
Operator: Privately registered:
United States
More flights under this callsign
Pilot: John P. (24518)
Aircraft: CESSNA 172 SKYHAWK
(C172)
More flights by this aircraft type
Origin: L88 New Cuyama
United States
Destination: KSBP San Luis Co Regl
United States
More flights between these airports :: More routes between these airports
Route:
File this flight plan on PilotEdge
Remarks:
Altitude:
(Current/Filed)
6,500ft
Speed:
(Current/Filed)
125kts
Departed: 08-Feb-20 09:23 PM
Arrived: 08-Feb-20 09:57 PM
Distance/Time
Traveled:
50nm/0:34
Distance/Time
To Go:
Arrived

Flight Plot

Page will automatically refresh every two minutes.


Map Options




Map Legend


Flown Route
Filed Route
Departure Airport
Arrival Airport
Navaid (VOR, NDB)
Fix

Horizontal Profiles

Position Reports

Time Latitude Longitude Heading Altitude Ground
Speed
08-Feb-20 21:18 34.942782 -119.690328 205 2156ft 0kts
08-Feb-20 21:19 34.942762 -119.690734 277 2156ft 0kts
08-Feb-20 21:20 34.942762 -119.690734 277 2156ft 0kts
08-Feb-20 21:21 34.942780 -119.691056 237 2155ft 0kts
08-Feb-20 21:22 34.939727 -119.685050 117 2179ft 42kts
08-Feb-20 21:23 34.937708 -119.680148 295 2200ft 21kts
08-Feb-20 21:24 34.946174 -119.703441 294 2621ft 101kts
08-Feb-20 21:25 34.957023 -119.736656 293 3325ft 103kts
08-Feb-20 21:26 34.967359 -119.769218 293 4028ft 103kts
08-Feb-20 21:27 34.977638 -119.801901 294 4674ft 103kts
08-Feb-20 21:28 34.987829 -119.834415 294 5265ft 102kts
08-Feb-20 21:29 34.998044 -119.867067 294 5812ft 102kts
08-Feb-20 21:30 35.008177 -119.899501 295 6313ft 102kts
08-Feb-20 21:31 35.015797 -119.923838 294 6509ft 112kts
08-Feb-20 21:32 35.027302 -119.957973 308 6505ft 106kts
08-Feb-20 21:33 35.042645 -119.988004 295 6506ft 107kts
08-Feb-20 21:34 35.053117 -120.022207 294 6506ft 107kts
08-Feb-20 21:35 35.063441 -120.056457 294 6506ft 107kts
08-Feb-20 21:36 35.073715 -120.090688 294 6506ft 107kts
08-Feb-20 21:37 35.084033 -120.125115 294 6506ft 107kts
08-Feb-20 21:38 35.094255 -120.159343 294 6505ft 107kts
08-Feb-20 21:39 35.104505 -120.193712 294 6510ft 107kts
08-Feb-20 21:40 35.114750 -120.228106 295 6346ft 99kts
08-Feb-20 21:41 35.123844 -120.258468 295 5344ft 94kts
08-Feb-20 21:42 35.132651 -120.288128 295 4516ft 85kts
08-Feb-20 21:43 35.140403 -120.314368 295 4509ft 81kts
08-Feb-20 21:44 35.148209 -120.340693 295 4509ft 81kts
08-Feb-20 21:45 35.155956 -120.366834 295 4509ft 81kts
08-Feb-20 21:46 35.163727 -120.393080 295 4509ft 81kts
08-Feb-20 21:47 35.171490 -120.419319 295 4509ft 81kts
08-Feb-20 21:48 35.178129 -120.446124 288 4509ft 83kts
08-Feb-20 21:49 35.182214 -120.474357 286 4434ft 89kts
08-Feb-20 21:50 35.185154 -120.506119 278 4034ft 96kts
08-Feb-20 21:51 35.185372 -120.536131 284 3311ft 82kts
08-Feb-20 21:52 35.191404 -120.563033 300 2422ft 80kts
08-Feb-20 21:53 35.203053 -120.585457 310 1712ft 77kts
08-Feb-20 21:54 35.217821 -120.607735 306 990ft 78kts
08-Feb-20 21:55 35.230377 -120.629302 306 325ft 74kts
08-Feb-20 21:56 35.237707 -120.640003 17 216ft 2kts
08-Feb-20 21:57 35.238675 -120.640073 57 216ft 7kts
08-Feb-20 21:58 35.238813 -120.639782 80 216ft 0kts
08-Feb-20 21:59 35.238813 -120.639782 80 216ft 0kts
08-Feb-20 22:00 35.238813 -120.639782 80 216ft 0kts
08-Feb-20 22:01 35.238813 -120.639782 80 216ft 0kts
08-Feb-20 22:02 35.238813 -120.639782 80 216ft 0kts
08-Feb-20 22:03 35.238813 -120.639782 80 216ft 0kts
08-Feb-20 22:04 35.238813 -120.639782 80 216ft 0kts
08-Feb-20 22:05 35.238813 -120.639782 80 216ft 0kts
08-Feb-20 22:06 35.238813 -120.639782 80 216ft 0kts
08-Feb-20 22:07 35.238813 -120.639782 80 216ft 0kts
08-Feb-20 22:08 35.238813 -120.639782 80 216ft 0kts
08-Feb-20 22:09 35.238813 -120.639782 80 216ft 0kts
08-Feb-20 22:10 35.238813 -120.639782 80 216ft 0kts
08-Feb-20 22:11 35.238813 -120.639782 80 216ft 0kts

Navigation Log

Ident Type
Flight plan parsing failed, navigation log unavailable